createdAt,value
2018-02-11T00:00:54.791Z,9.95
2018-02-11T00:03:24.724Z,7.12
2018-02-11T00:05:54.695Z,9.68
2018-02-11T00:08:23.040Z,7.85
2018-02-11T00:10:51.306Z,8.20
2018-02-11T00:13:19.672Z,9.13
2018-02-11T00:15:48.054Z,9.73
2018-02-11T00:18:18.925Z,7.45
2018-02-11T00:20:47.485Z,8.20
2018-02-11T00:23:15.801Z,9.60
2018-02-11T00:25:44.466Z,6.78
2018-02-11T00:28:14.295Z,8.68
2018-02-11T00:30:44.773Z,8.32
2018-02-11T00:33:13.721Z,6.50
2018-02-11T00:35:47.346Z,5.80
2018-02-11T00:38:15.991Z,7.43
2018-02-11T00:40:44.356Z,7.97
2018-02-11T00:43:13.720Z,9.30
2018-02-11T00:45:44.317Z,8.15
2018-02-11T00:48:16.357Z,8.20
2018-02-11T00:50:50.139Z,8.77
2018-02-11T00:53:20.071Z,7.47
2018-02-11T00:55:50.592Z,10.10
2018-02-11T00:58:19.621Z,8.25
2018-02-11T01:00:49.727Z,9.00
2018-02-11T01:03:19.798Z,8.30
2018-02-11T01:05:51.041Z,8.68
2018-02-11T01:08:19.735Z,13.07
2018-02-11T01:10:49.567Z,9.23
2018-02-11T01:13:20.014Z,11.48
2018-02-11T01:15:49.851Z,8.20
2018-02-11T01:18:20.184Z,8.15
2018-02-11T01:20:48.522Z,10.75
2018-02-11T01:23:16.963Z,9.65
2018-02-11T01:25:45.232Z,6.47
2018-02-11T01:28:13.505Z,11.40
2018-02-11T01:30:41.962Z,10.20
2018-02-11T01:33:13.612Z,12.40
2018-02-11T01:35:41.884Z,9.52
2018-02-11T01:38:15.872Z,6.15
2018-02-11T01:40:44.131Z,9.02
2018-02-11T01:43:14.312Z,9.40
2018-02-11T01:45:43.368Z,7.97
2018-02-11T01:48:13.236Z,8.77
2018-02-11T01:50:41.993Z,7.30
2018-02-11T01:53:13.279Z,5.82
2018-02-11T01:55:41.551Z,8.38
2018-02-11T01:58:12.979Z,7.30
2018-02-11T02:00:41.276Z,7.20
2018-02-11T02:03:16.492Z,7.43
2018-02-11T02:05:45.029Z,6.10
2018-02-11T02:08:14.216Z,8.65
2018-02-11T02:10:43.469Z,6.82
2018-02-11T02:13:13.627Z,9.88
2018-02-11T02:15:41.900Z,6.22
2018-02-11T02:18:13.888Z,8.82
2018-02-11T02:20:42.515Z,5.40
2018-02-11T02:23:14.526Z,8.85
2018-02-11T02:25:42.821Z,10.90
2018-02-11T02:28:14.912Z,9.25
2018-02-11T02:30:43.429Z,12.02
2018-02-11T02:33:13.449Z,9.50
2018-02-11T02:35:41.737Z,8.57
2018-02-11T02:38:16.620Z,9.35
2018-02-11T02:40:45.052Z,12.95
2018-02-11T02:43:13.356Z,7.68
2018-02-11T02:45:41.662Z,10.27
2018-02-11T02:48:16.825Z,8.07
2018-02-11T02:50:45.141Z,8.13
2018-02-11T02:53:14.056Z,7.87
2018-02-11T02:55:42.324Z,7.37
2018-02-11T02:58:14.222Z,8.18
2018-02-11T03:00:42.488Z,7.82
2018-02-11T03:03:14.612Z,7.75
2018-02-11T03:05:42.965Z,7.82
2018-02-11T03:08:14.480Z,7.30
2018-02-11T03:10:42.756Z,6.70
2018-02-11T03:13:14.837Z,6.75
2018-02-11T03:15:43.361Z,6.68
2018-02-11T03:18:14.212Z,7.78
2018-02-11T03:20:42.560Z,6.43
2018-02-11T03:23:14.383Z,6.28
2018-02-11T03:25:42.668Z,6.80
2018-02-11T03:28:14.073Z,6.15
2018-02-11T03:30:43.053Z,6.75
2018-02-11T03:33:14.668Z,6.45
2018-02-11T03:35:42.961Z,4.65
2018-02-11T03:38:15.064Z,3.78
2018-02-11T03:40:43.345Z,6.57
2018-02-11T03:43:14.305Z,4.80
2018-02-11T03:45:42.592Z,5.50
2018-02-11T03:48:14.266Z,4.28
2018-02-11T03:50:42.572Z,5.65
2018-02-11T03:53:14.722Z,6.43
2018-02-11T03:55:43.256Z,4.40
2018-02-11T03:58:15.083Z,4.75
2018-02-11T04:00:43.361Z,5.35
2018-02-11T04:03:13.517Z,3.97
2018-02-11T04:05:41.774Z,4.45
2018-02-11T04:08:15.961Z,4.97
2018-02-11T04:10:44.368Z,3.83
2018-02-11T04:13:13.672Z,4.65
2018-02-11T04:15:41.939Z,4.10
2018-02-11T04:18:15.883Z,5.95
2018-02-11T04:20:44.136Z,4.50
2018-02-11T04:23:13.660Z,5.72
2018-02-11T04:25:42.528Z,5.32
2018-02-11T04:28:14.171Z,3.47
2018-02-11T04:30:42.435Z,6.07
2018-02-11T04:33:13.852Z,3.83
2018-02-11T04:35:42.682Z,2.85
2018-02-11T04:38:14.487Z,5.03
2018-02-11T04:40:42.743Z,4.62
2018-02-11T04:43:14.369Z,3.35
2018-02-11T04:45:43.306Z,5.12
2018-02-11T04:48:13.388Z,2.47
2018-02-11T04:50:41.676Z,3.53
2018-02-11T04:53:16.671Z,5.18
2018-02-11T04:55:44.977Z,2.95
2018-02-11T04:58:14.492Z,4.80
2018-02-11T05:00:42.921Z,3.55
2018-02-11T05:03:14.224Z,4.15
2018-02-11T05:05:42.516Z,2.00
2018-02-11T05:08:13.383Z,2.80
2018-02-11T05:10:41.660Z,2.58
2018-02-11T05:13:14.565Z,3.20
2018-02-11T05:15:42.846Z,3.08
2018-02-11T05:18:14.938Z,3.08
2018-02-11T05:20:43.224Z,4.40
2018-02-11T05:23:15.379Z,2.50
2018-02-11T05:25:43.632Z,1.87
2018-02-11T05:28:15.064Z,3.45
2018-02-11T05:30:43.344Z,2.28
2018-02-11T05:33:15.034Z,3.53
2018-02-11T05:35:43.280Z,2.42
2018-02-11T05:38:15.220Z,2.97
2018-02-11T05:40:44.396Z,3.28
2018-02-11T05:43:13.802Z,2.12
2018-02-11T05:45:42.720Z,4.55
2018-02-11T05:48:14.355Z,2.17
2018-02-11T05:50:42.636Z,2.35
2018-02-11T05:53:14.135Z,1.62
2018-02-11T05:55:42.412Z,2.28
2018-02-11T05:58:13.787Z,2.25
2018-02-11T06:00:42.072Z,4.30
2018-02-11T06:03:16.513Z,3.72
2018-02-11T06:05:44.806Z,2.92
2018-02-11T06:08:13.693Z,3.17
2018-02-11T06:10:41.988Z,2.25
2018-02-11T06:13:13.934Z,2.85
2018-02-11T06:15:42.238Z,2.78
2018-02-11T06:18:14.071Z,4.20
2018-02-11T06:20:42.341Z,3.28
2018-02-11T06:23:14.845Z,4.10
2018-02-11T06:25:43.109Z,3.53
2018-02-11T06:28:15.147Z,3.33
2018-02-11T06:30:43.535Z,3.03
2018-02-11T06:33:13.668Z,3.42
2018-02-11T06:35:41.931Z,3.20
2018-02-11T06:38:15.972Z,3.58
2018-02-11T06:40:44.323Z,3.87
2018-02-11T06:43:13.618Z,4.22
2018-02-11T06:45:41.933Z,4.97
2018-02-11T06:48:15.194Z,4.25
2018-02-11T06:50:43.449Z,5.30
2018-02-11T06:53:13.568Z,4.62
2018-02-11T06:55:41.856Z,4.65
2018-02-11T06:58:13.379Z,4.60
2018-02-11T07:00:41.660Z,4.50
2018-02-11T07:03:14.488Z,3.47
2018-02-11T07:05:42.786Z,3.80
2018-02-11T07:08:14.484Z,2.65
2018-02-11T07:10:42.897Z,2.95
2018-02-11T07:13:14.330Z,2.10
2018-02-11T07:15:42.623Z,3.15
2018-02-11T07:18:13.421Z,1.65
2018-02-11T07:20:41.651Z,1.85
2018-02-11T07:23:13.603Z,1.52
2018-02-11T07:25:41.893Z,1.33
2018-02-11T07:28:13.328Z,2.10
2018-02-11T07:30:41.591Z,1.37
2018-02-11T07:33:13.264Z,0.98
2018-02-11T07:35:41.584Z,1.10
2018-02-11T07:38:13.572Z,1.37
2018-02-11T07:40:41.848Z,3.35
2018-02-11T07:43:17.185Z,1.85
2018-02-11T07:45:45.547Z,2.08
2018-02-11T07:48:14.849Z,3.15
2018-02-11T07:50:43.068Z,4.50
2018-02-11T07:53:14.495Z,4.25
2018-02-11T07:55:42.767Z,4.82
2018-02-11T07:58:14.913Z,6.28
2018-02-11T08:00:43.188Z,4.95
2018-02-11T08:03:14.378Z,5.53
2018-02-11T08:05:42.663Z,4.32
2018-02-11T08:08:14.688Z,3.80
2018-02-11T08:10:42.989Z,4.55
2018-02-11T08:13:14.975Z,3.65
2018-02-11T08:15:43.471Z,3.62
2018-02-11T08:18:14.165Z,2.65
2018-02-11T08:20:42.476Z,2.75
2018-02-11T08:23:14.299Z,2.65
2018-02-11T08:25:42.592Z,2.42
2018-02-11T08:28:13.770Z,1.92
2018-02-11T08:30:42.324Z,2.10
2018-02-11T08:33:14.275Z,1.30
2018-02-11T08:35:42.646Z,3.92
2018-02-11T08:38:14.765Z,1.12
2018-02-11T08:40:43.251Z,1.87
2018-02-11T08:43:13.364Z,1.37
2018-02-11T08:45:41.915Z,1.75
2018-02-11T08:48:13.240Z,1.27
2018-02-11T08:50:42.225Z,1.42
2018-02-11T08:53:14.356Z,1.95
2018-02-11T08:55:42.680Z,1.17
2018-02-11T08:58:14.701Z,1.95
2018-02-11T09:00:42.994Z,0.70
2018-02-11T09:03:15.025Z,0.80
2018-02-11T09:05:43.318Z,5.07
2018-02-11T09:08:16.542Z,2.87
2018-02-11T09:10:44.837Z,0.70
2018-02-11T09:13:13.936Z,0.95
2018-02-11T09:15:42.199Z,0.88
2018-02-11T09:18:13.912Z,1.23
2018-02-11T09:20:42.145Z,1.15
2018-02-11T09:23:14.237Z,2.25
2018-02-11T09:25:42.506Z,1.12
2018-02-11T09:28:14.254Z,1.30
2018-02-11T09:30:42.883Z,4.30
2018-02-11T09:33:14.722Z,1.23
2018-02-11T09:35:43.000Z,1.45
2018-02-11T09:38:15.128Z,1.70
2018-02-11T09:40:43.399Z,1.87
2018-02-11T09:43:15.072Z,1.42
2018-02-11T09:45:43.461Z,1.17
2018-02-11T09:48:16.652Z,1.08
2018-02-11T09:50:45.086Z,2.28
2018-02-11T09:53:13.396Z,1.60
2018-02-11T09:55:41.749Z,2.55
2018-02-11T09:58:16.871Z,2.45
2018-02-11T10:00:45.378Z,1.77
2018-02-11T10:03:13.743Z,2.30
2018-02-11T10:05:42.306Z,1.53
2018-02-11T10:08:14.191Z,1.55
2018-02-11T10:10:42.480Z,2.28
2018-02-11T10:13:14.655Z,1.50
2018-02-11T10:15:42.957Z,3.28
2018-02-11T10:18:14.526Z,1.92
2018-02-11T10:20:42.986Z,1.50
2018-02-11T10:23:15.100Z,1.98
2018-02-11T10:25:43.404Z,2.58
2018-02-11T10:28:13.645Z,1.05
2018-02-11T10:30:42.189Z,2.65
2018-02-11T10:33:13.697Z,2.77
2018-02-11T10:35:41.953Z,1.80
2018-02-11T10:38:14.104Z,3.03
2018-02-11T10:40:42.688Z,2.57
2018-02-11T10:43:14.081Z,3.57
2018-02-11T10:45:42.896Z,3.37
2018-02-11T10:48:14.700Z,3.37
2018-02-11T10:50:43.005Z,1.47
2018-02-11T10:53:14.444Z,2.00
2018-02-11T10:55:42.715Z,2.90
2018-02-11T10:58:13.460Z,4.73
2018-02-11T11:00:42.701Z,3.40
2018-02-11T11:03:14.733Z,3.27
2018-02-11T11:05:43.019Z,1.67
2018-02-11T11:08:15.163Z,2.67
2018-02-11T11:10:43.445Z,4.83
2018-02-11T11:13:13.420Z,1.50
2018-02-11T11:15:41.695Z,2.10
2018-02-11T11:18:13.677Z,3.73
2018-02-11T11:20:42.265Z,3.77
2018-02-11T11:23:14.262Z,4.37
2018-02-11T11:25:43.387Z,2.67
2018-02-11T11:28:13.029Z,3.97
2018-02-11T11:30:41.319Z,4.33
2018-02-11T11:33:13.410Z,6.53
2018-02-11T11:35:41.707Z,6.10
2018-02-11T11:38:13.752Z,6.30
2018-02-11T11:40:42.027Z,5.23
2018-02-11T11:43:13.478Z,4.77
2018-02-11T11:45:41.969Z,5.67
2018-02-11T11:48:14.121Z,6.53
2018-02-11T11:50:42.664Z,5.10
2018-02-11T11:53:12.649Z,9.17
2018-02-11T11:55:40.966Z,7.33
2018-02-11T11:58:16.186Z,5.63
2018-02-11T12:00:44.444Z,6.17
2018-02-11T12:03:12.903Z,7.00
2018-02-11T12:05:41.166Z,5.00
2018-02-11T12:08:13.266Z,6.40
2018-02-11T12:10:41.534Z,5.77
2018-02-11T12:13:12.737Z,6.17
2018-02-11T12:15:41.028Z,6.57
2018-02-11T12:18:12.456Z,6.63
2018-02-11T12:20:40.737Z,3.77
2018-02-11T12:23:12.285Z,5.03
2018-02-11T12:25:40.570Z,5.37
2018-02-11T12:28:11.844Z,6.07
2018-02-11T12:30:40.120Z,6.53
2018-02-11T12:33:14.848Z,8.03
2018-02-11T12:35:43.145Z,7.17
2018-02-11T12:38:12.829Z,4.80
2018-02-11T12:40:41.383Z,4.23
2018-02-11T12:43:13.376Z,2.83
2018-02-11T12:45:41.654Z,5.17
2018-02-11T12:48:14.013Z,4.63
2018-02-11T12:50:42.300Z,5.97
2018-02-11T12:53:14.253Z,9.13
2018-02-11T12:55:42.506Z,4.83
2018-02-11T12:58:12.476Z,6.00
2018-02-11T13:00:40.760Z,7.87
2018-02-11T13:03:16.165Z,6.70
2018-02-11T13:05:44.441Z,6.20
2018-02-11T13:08:12.720Z,6.80
2018-02-11T13:10:41.012Z,7.03
2018-02-11T13:13:12.392Z,5.70
2018-02-11T13:15:40.684Z,6.80
2018-02-11T13:18:13.305Z,7.77
2018-02-11T13:20:45.518Z,7.83
2018-02-11T13:23:13.831Z,7.73
2018-02-11T13:25:42.117Z,12.03
2018-02-11T13:28:13.813Z,6.63
2018-02-11T13:30:42.125Z,7.20
2018-02-11T13:33:13.600Z,6.77
2018-02-11T13:35:41.884Z,6.43
2018-02-11T13:38:13.884Z,6.17
2018-02-11T13:40:42.219Z,8.83
2018-02-11T13:43:14.339Z,8.27
2018-02-11T13:45:42.616Z,4.93
2018-02-11T13:48:12.670Z,6.90
2018-02-11T13:50:41.635Z,5.53
2018-02-11T13:53:12.538Z,8.23
2018-02-11T13:55:41.178Z,8.07
2018-02-11T13:58:15.112Z,6.53
2018-02-11T14:00:43.390Z,7.50
2018-02-11T14:03:12.695Z,5.83
2018-02-11T14:05:40.968Z,5.40
2018-02-11T14:08:12.568Z,5.30
2018-02-11T14:10:40.851Z,6.07
2018-02-11T14:13:12.422Z,5.77
2018-02-11T14:15:40.683Z,7.67
2018-02-11T14:18:13.419Z,6.93
2018-02-11T14:20:41.716Z,7.50
2018-02-11T14:23:13.725Z,7.57
2018-02-11T14:25:41.984Z,5.57
2018-02-11T14:28:14.125Z,4.97
2018-02-11T14:30:42.401Z,6.77
2018-02-11T14:33:13.818Z,7.07
2018-02-11T14:35:42.146Z,6.70
2018-02-11T14:38:13.320Z,6.00
2018-02-11T14:40:41.608Z,7.20
2018-02-11T14:43:13.625Z,4.13
2018-02-11T14:45:41.941Z,6.37
2018-02-11T14:48:13.110Z,4.20
2018-02-11T14:50:41.922Z,7.43
2018-02-11T14:53:13.637Z,7.87
2018-02-11T14:55:42.095Z,6.63
2018-02-11T14:58:14.192Z,6.60
2018-02-11T15:00:42.637Z,7.43
2018-02-11T15:03:12.510Z,7.83
2018-02-11T15:05:40.784Z,10.00
2018-02-11T15:08:13.025Z,6.83
2018-02-11T15:10:41.376Z,7.87
2018-02-11T15:13:12.676Z,5.17
2018-02-11T15:15:40.982Z,6.73
2018-02-11T15:18:16.366Z,7.80
2018-02-11T15:20:44.772Z,6.87
2018-02-11T15:23:13.038Z,5.47
2018-02-11T15:25:41.313Z,6.83
2018-02-11T15:28:13.321Z,7.50
2018-02-11T15:30:41.636Z,5.97
2018-02-11T15:33:13.761Z,8.83
2018-02-11T15:35:42.057Z,8.50
2018-02-11T15:38:14.310Z,5.77
2018-02-11T15:40:42.604Z,8.60
2018-02-11T15:43:12.438Z,8.97
2018-02-11T15:45:40.799Z,9.80
2018-02-11T15:48:12.428Z,7.37
2018-02-11T15:50:40.730Z,10.27
2018-02-11T15:53:12.657Z,5.37
2018-02-11T15:55:41.072Z,7.37
2018-02-11T15:58:12.656Z,9.30
2018-02-11T16:00:40.970Z,7.47
2018-02-11T16:03:16.044Z,6.93
2018-02-11T16:05:44.320Z,6.43
2018-02-11T16:08:13.183Z,6.57
2018-02-11T16:10:41.443Z,4.77
2018-02-11T16:13:13.553Z,3.90
2018-02-11T16:15:41.820Z,4.97
2018-02-11T16:18:12.720Z,6.40
2018-02-11T16:20:41.012Z,3.67
2018-02-11T16:23:12.414Z,3.97
2018-02-11T16:25:40.823Z,5.03
2018-02-11T16:28:14.154Z,3.03
2018-02-11T16:30:42.406Z,8.50
2018-02-11T16:33:14.197Z,7.25
2018-02-11T16:35:42.676Z,4.73
2018-02-11T16:38:12.856Z,6.87
2018-02-11T16:40:41.176Z,5.73
2018-02-11T16:43:15.150Z,5.37
2018-02-11T16:45:44.035Z,5.25
2018-02-11T16:48:13.346Z,5.45
2018-02-11T16:50:41.625Z,6.93
2018-02-11T16:53:12.560Z,13.03
2018-02-11T16:55:41.047Z,7.00
2018-02-11T16:58:13.994Z,6.12
2018-02-11T17:00:43.339Z,6.65
2018-02-11T17:03:13.356Z,17.45
2018-02-11T17:05:42.089Z,8.27
2018-02-11T17:08:13.760Z,6.12
2018-02-11T17:10:42.052Z,5.18
2018-02-11T17:13:14.184Z,4.85
2018-02-11T17:15:42.536Z,7.72
2018-02-11T17:18:12.556Z,6.50
2018-02-11T17:20:40.844Z,4.93
2018-02-11T17:23:12.336Z,7.62
2018-02-11T17:25:40.665Z,9.02
2018-02-11T17:28:11.915Z,7.43
2018-02-11T17:30:40.200Z,6.57
2018-02-11T17:33:13.423Z,8.45
2018-02-11T17:35:41.668Z,8.95
2018-02-11T17:38:12.521Z,10.48
2018-02-11T17:40:41.057Z,6.43
2018-02-11T17:43:15.217Z,10.07
2018-02-11T17:45:43.693Z,6.93
2018-02-11T17:48:12.886Z,7.30
2018-02-11T17:50:41.449Z,7.12
2018-02-11T17:53:13.488Z,5.75
2018-02-11T17:55:41.740Z,7.15
2018-02-11T17:58:12.551Z,6.55
2018-02-11T18:00:41.197Z,8.43
2018-02-11T18:03:15.198Z,6.28
2018-02-11T18:05:43.490Z,7.95
2018-02-11T18:08:12.968Z,10.65
2018-02-11T18:10:41.240Z,6.18
2018-02-11T18:13:12.548Z,4.32
2018-02-11T18:15:41.453Z,5.40
2018-02-11T18:18:12.836Z,6.70
2018-02-11T18:20:41.149Z,5.82
2018-02-11T18:23:15.194Z,4.47
2018-02-11T18:25:43.467Z,7.32
2018-02-11T18:28:12.867Z,5.50
2018-02-11T18:30:41.382Z,6.12
2018-02-11T18:33:12.591Z,4.85
2018-02-11T18:35:40.890Z,3.92
2018-02-11T18:38:16.067Z,5.78
2018-02-11T18:40:44.400Z,5.68
2018-02-11T18:43:13.242Z,5.43
2018-02-11T18:45:41.564Z,3.97
2018-02-11T18:48:13.580Z,4.82
2018-02-11T18:50:42.376Z,4.78
2018-02-11T18:53:14.339Z,6.30
2018-02-11T18:55:42.634Z,5.95
2018-02-11T18:58:12.721Z,5.28
2018-02-11T19:00:41.035Z,4.40
2018-02-11T19:03:12.394Z,4.07
2018-02-11T19:05:40.695Z,5.37
2018-02-11T19:08:12.373Z,5.43
2018-02-11T19:10:40.691Z,3.37
2018-02-11T19:13:15.890Z,26.77
2018-02-11T19:15:44.173Z,13.70
2018-02-11T19:18:13.117Z,4.03
2018-02-11T19:20:41.405Z,5.68
2018-02-11T19:23:13.536Z,4.82
2018-02-11T19:25:42.056Z,4.37
2018-02-11T19:28:14.228Z,5.95
2018-02-11T19:30:42.513Z,5.75
2018-02-11T19:33:14.548Z,4.70
2018-02-11T19:35:42.808Z,4.32
2018-02-11T19:38:12.876Z,6.22
2018-02-11T19:40:41.220Z,4.32
2018-02-11T19:43:12.805Z,6.40
2018-02-11T19:45:41.106Z,4.45
2018-02-11T19:48:16.224Z,6.07
2018-02-11T19:50:44.516Z,5.57
2018-02-11T19:53:12.781Z,8.23
2018-02-11T19:55:41.110Z,5.93
2018-02-11T19:58:13.257Z,6.47
2018-02-11T20:00:41.540Z,12.13
2018-02-11T20:03:13.503Z,6.05
2018-02-11T20:05:41.966Z,7.30
2018-02-11T20:08:13.861Z,9.73
2018-02-11T20:10:42.272Z,10.63
2018-02-11T20:13:14.384Z,9.38
2018-02-11T20:15:42.629Z,8.10
2018-02-11T20:18:13.836Z,8.18
2018-02-11T20:20:42.336Z,7.00
2018-02-11T20:23:14.356Z,6.97
2018-02-11T20:25:42.679Z,8.38
2018-02-11T20:28:12.808Z,9.15
2018-02-11T20:30:41.222Z,9.60
2018-02-11T20:33:12.644Z,12.43
2018-02-11T20:35:41.343Z,12.20
2018-02-11T20:38:13.712Z,8.73
2018-02-11T20:40:42.001Z,8.63
2018-02-11T20:43:13.532Z,7.12
2018-02-11T20:45:41.841Z,8.25
2018-02-11T20:48:12.808Z,9.98
2018-02-11T20:50:41.109Z,7.18
2018-02-11T20:53:13.877Z,6.20
2018-02-11T20:55:42.179Z,7.03
2018-02-11T20:58:13.497Z,5.72
2018-02-11T21:00:41.956Z,6.32
2018-02-11T21:03:13.945Z,8.23
2018-02-11T21:05:42.248Z,9.95
2018-02-11T21:08:13.684Z,5.03
2018-02-11T21:10:41.970Z,6.43
2018-02-11T21:13:12.761Z,7.72
2018-02-11T21:15:41.052Z,7.60
2018-02-11T21:18:14.971Z,7.35
2018-02-11T21:20:43.273Z,6.65
2018-02-11T21:23:12.989Z,8.60
2018-02-11T21:25:41.279Z,6.97
2018-02-11T21:28:13.748Z,6.93
2018-02-11T21:30:41.986Z,6.10
2018-02-11T21:33:13.797Z,6.05
2018-02-11T21:35:42.100Z,5.78
2018-02-11T21:38:14.140Z,6.07
2018-02-11T21:40:42.422Z,6.03
2018-02-11T21:43:14.432Z,7.53
2018-02-11T21:45:42.701Z,7.47
2018-02-11T21:48:12.804Z,6.55
2018-02-11T21:50:41.068Z,6.03
2018-02-11T21:53:12.836Z,6.68
2018-02-11T21:55:41.123Z,5.35
2018-02-11T21:58:12.600Z,4.18
2018-02-11T22:00:40.894Z,5.80
2018-02-11T22:03:16.474Z,6.37
2018-02-11T22:05:44.743Z,6.12
2018-02-11T22:08:13.036Z,4.43
2018-02-11T22:10:41.313Z,4.95
2018-02-11T22:13:12.659Z,3.65
2018-02-11T22:15:40.928Z,3.90
2018-02-11T22:18:12.854Z,4.10
2018-02-11T22:20:41.143Z,5.12
2018-02-11T22:23:12.798Z,4.25
2018-02-11T22:25:41.068Z,4.93
2018-02-11T22:28:12.604Z,4.37
2018-02-11T22:30:40.894Z,3.62
2018-02-11T22:33:12.636Z,4.32
2018-02-11T22:35:40.917Z,3.03
2018-02-11T22:38:12.194Z,4.85
2018-02-11T22:40:40.727Z,5.43
2018-02-11T22:43:12.996Z,4.72
2018-02-11T22:45:41.285Z,3.45
2018-02-11T22:48:16.287Z,4.93
2018-02-11T22:50:44.618Z,4.30
2018-02-11T22:53:12.872Z,6.62
2018-02-11T22:55:41.143Z,6.35
2018-02-11T22:58:12.657Z,3.33
2018-02-11T23:00:40.938Z,4.90
2018-02-11T23:03:12.506Z,5.57
2018-02-11T23:05:40.800Z,4.10
2018-02-11T23:08:13.812Z,4.93
2018-02-11T23:10:43.525Z,3.28
2018-02-11T23:13:15.053Z,2.62
2018-02-11T23:15:45.552Z,4.50
2018-02-11T23:18:19.954Z,3.08
2018-02-11T23:20:51.574Z,4.03
2018-02-11T23:23:21.661Z,3.78
2018-02-11T23:25:58.474Z,4.62
2018-02-11T23:28:29.172Z,2.87
2018-02-11T23:30:57.695Z,2.67
2018-02-11T23:33:26.137Z,2.85
2018-02-11T23:35:54.411Z,2.50
2018-02-11T23:38:22.696Z,4.03
2018-02-11T23:40:51.029Z,3.80
2018-02-11T23:43:23.473Z,2.53
2018-02-11T23:45:51.781Z,2.28
2018-02-11T23:48:20.058Z,3.20
2018-02-11T23:50:48.323Z,3.00
2018-02-11T23:53:16.871Z,3.40
2018-02-11T23:55:45.156Z,3.17
2018-02-11T23:58:13.439Z,2.45
